createdAt,value
2022-09-07T00:01:16.808Z,14.65
2022-09-07T00:03:44.819Z,12.98
2022-09-07T00:06:14.112Z,14.23
2022-09-07T00:08:44.632Z,14.05
2022-09-07T00:11:14.747Z,16.30
2022-09-07T00:13:44.713Z,12.30
2022-09-07T00:16:14.221Z,12.32
2022-09-07T00:18:45.786Z,13.50
2022-09-07T00:21:15.676Z,12.63
2022-09-07T00:23:45.879Z,13.77
2022-09-07T00:26:15.727Z,14.23
2022-09-07T00:28:44.379Z,14.73
2022-09-07T00:31:15.562Z,13.70
2022-09-07T00:33:44.300Z,13.25
2022-09-07T00:36:12.544Z,15.38
2022-09-07T00:38:40.526Z,16.55
2022-09-07T00:41:09.754Z,17.52
2022-09-07T00:43:40.486Z,16.75
2022-09-07T00:46:14.220Z,18.73
2022-09-07T00:48:48.370Z,15.80
2022-09-07T00:51:20.131Z,15.25
2022-09-07T00:53:53.761Z,14.85
2022-09-07T00:56:27.461Z,16.77
2022-09-07T00:58:55.755Z,15.85
2022-09-07T01:01:24.167Z,15.23
2022-09-07T01:03:54.937Z,15.02
2022-09-07T01:06:26.334Z,13.55
2022-09-07T01:08:56.232Z,13.43
2022-09-07T01:11:25.518Z,13.82
2022-09-07T01:13:54.836Z,12.70
2022-09-07T01:16:39.659Z,12.98
2022-09-07T01:19:38.793Z,13.63
2022-09-07T01:22:25.004Z,13.07
2022-09-07T01:25:05.674Z,13.20
2022-09-07T01:28:05.081Z,12.40
2022-09-07T01:30:37.627Z,13.70
2022-09-07T01:33:24.324Z,12.98
2022-09-07T01:36:02.225Z,12.38
2022-09-07T01:38:36.083Z,12.70
2022-09-07T01:41:09.046Z,13.02
2022-09-07T01:43:44.234Z,12.80
2022-09-07T01:46:18.032Z,15.20
2022-09-07T01:48:49.632Z,13.00
2022-09-07T01:51:19.928Z,12.55
2022-09-07T01:53:53.199Z,13.45
2022-09-07T01:56:27.370Z,12.98
2022-09-07T01:59:01.641Z,12.32
2022-09-07T02:01:34.849Z,14.07
2022-09-07T02:04:08.148Z,13.23
2022-09-07T02:06:41.991Z,12.02
2022-09-07T02:09:15.629Z,13.68
2022-09-07T02:11:46.729Z,13.18
2022-09-07T02:14:21.410Z,12.05
2022-09-07T02:16:56.304Z,12.07
2022-09-07T02:19:28.145Z,11.85
2022-09-07T02:22:00.340Z,12.60
2022-09-07T02:24:35.309Z,11.95
2022-09-07T02:27:07.542Z,12.18
2022-09-07T02:29:38.172Z,12.82
2022-09-07T02:32:07.587Z,13.75
2022-09-07T02:34:36.140Z,12.85
2022-09-07T02:37:06.601Z,12.82
2022-09-07T02:39:35.062Z,12.23
2022-09-07T02:42:03.028Z,13.20
2022-09-07T02:44:34.757Z,14.18
2022-09-07T02:47:16.980Z,10.93
2022-09-07T02:50:08.080Z,11.30
2022-09-07T02:52:45.364Z,12.60
2022-09-07T02:55:27.064Z,13.65
2022-09-07T02:58:10.602Z,11.95
2022-09-07T03:00:47.037Z,12.48
2022-09-07T03:03:24.271Z,12.75
2022-09-07T03:05:56.815Z,13.93
2022-09-07T03:08:27.584Z,13.00
2022-09-07T03:10:56.621Z,13.15
2022-09-07T03:13:27.562Z,12.52
2022-09-07T03:15:56.566Z,12.57
2022-09-07T03:18:26.878Z,13.77
2022-09-07T03:20:55.953Z,13.55
2022-09-07T03:23:24.210Z,12.82
2022-09-07T03:25:52.762Z,13.48
2022-09-07T03:28:20.617Z,12.60
2022-09-07T03:30:48.504Z,14.00
2022-09-07T03:33:17.294Z,13.70
2022-09-07T03:35:48.025Z,13.35
2022-09-07T03:38:15.853Z,13.60
2022-09-07T03:40:43.710Z,13.85
2022-09-07T03:43:11.522Z,15.35
2022-09-07T03:45:39.382Z,13.48
2022-09-07T03:48:07.450Z,15.40
2022-09-07T03:50:35.266Z,14.75
2022-09-07T03:53:04.433Z,14.02
2022-09-07T03:55:32.622Z,14.30
2022-09-07T03:58:00.727Z,15.15
2022-09-07T04:00:28.878Z,15.57
2022-09-07T04:02:56.762Z,17.23
2022-09-07T04:05:24.613Z,15.90
2022-09-07T04:07:52.561Z,15.75
2022-09-07T04:10:21.738Z,13.80
2022-09-07T04:12:50.583Z,15.50
2022-09-07T04:15:18.658Z,15.35
2022-09-07T04:17:46.527Z,16.10
2022-09-07T04:20:14.624Z,15.90
2022-09-07T04:22:43.209Z,17.10
2022-09-07T04:25:11.126Z,17.10
2022-09-07T04:27:40.373Z,16.23
2022-09-07T04:30:10.112Z,14.52
2022-09-07T04:32:37.972Z,14.27
2022-09-07T04:35:06.773Z,16.42
2022-09-07T04:37:34.683Z,14.88
2022-09-07T04:40:02.650Z,14.93
2022-09-07T04:42:31.047Z,14.45
2022-09-07T04:45:00.476Z,14.27
2022-09-07T04:47:30.671Z,15.05
2022-09-07T04:49:59.025Z,14.88
2022-09-07T04:52:26.858Z,14.85
2022-09-07T04:54:54.989Z,15.50
2022-09-07T04:57:25.871Z,15.20
2022-09-07T04:59:53.758Z,14.80
2022-09-07T05:02:22.997Z,15.68
2022-09-07T05:04:50.862Z,15.13
2022-09-07T05:07:19.162Z,15.18
2022-09-07T05:09:48.320Z,15.68
2022-09-07T05:12:16.407Z,14.52
2022-09-07T05:14:44.463Z,15.25
2022-09-07T05:17:12.293Z,15.18
2022-09-07T05:19:41.645Z,15.38
2022-09-07T05:22:10.004Z,14.45
2022-09-07T05:24:37.823Z,15.40
2022-09-07T05:27:06.035Z,13.32
2022-09-07T05:32:21.776Z,16.13
2022-09-07T05:34:53.080Z,13.18
2022-09-07T05:37:21.281Z,14.95
2022-09-07T05:39:49.136Z,14.38
2022-09-07T05:42:17.562Z,14.13
2022-09-07T05:44:45.850Z,14.25
2022-09-07T05:47:14.150Z,15.93
2022-09-07T05:49:42.312Z,16.70
2022-09-07T05:52:11.697Z,13.88
2022-09-07T05:54:40.176Z,14.38
2022-09-07T05:57:08.483Z,13.02
2022-09-07T05:59:36.407Z,13.25
2022-09-07T06:02:04.513Z,14.18
2022-09-07T06:04:32.590Z,13.10
2022-09-07T06:12:38.242Z,12.65
2022-09-07T06:15:07.237Z,13.60
2022-09-07T06:17:35.638Z,13.80
2022-09-07T06:20:03.948Z,12.82
2022-09-07T06:22:31.937Z,12.25
2022-09-07T06:25:01.358Z,13.38
2022-09-07T06:27:29.700Z,14.25
2022-09-07T06:29:58.044Z,12.90
2022-09-07T06:35:14.882Z,13.05
2022-09-07T06:37:43.559Z,12.80
2022-09-07T06:40:13.022Z,12.23
2022-09-07T06:42:40.947Z,12.18
2022-09-07T06:45:11.684Z,11.40
2022-09-07T06:47:40.591Z,13.00
2022-09-07T06:50:09.797Z,13.65
2022-09-07T06:55:28.769Z,13.32
2022-09-07T06:57:56.760Z,14.15
2022-09-07T07:00:24.855Z,12.90
2022-09-07T07:02:52.744Z,13.50
2022-09-07T07:05:20.648Z,12.95
2022-09-07T07:07:48.424Z,11.90
2022-09-07T07:10:19.741Z,10.80
2022-09-07T07:12:53.100Z,10.80
2022-09-07T07:15:21.135Z,11.23
2022-09-07T07:17:56.060Z,10.80
2022-09-07T07:20:26.947Z,11.07
2022-09-07T07:22:55.665Z,10.13
2022-09-07T07:25:23.904Z,10.00
2022-09-07T07:27:53.533Z,10.80
2022-09-07T07:30:21.842Z,10.00
2022-09-07T07:32:49.982Z,11.10
2022-09-07T07:35:18.644Z,9.57
2022-09-07T07:37:48.060Z,10.55
2022-09-07T07:40:17.777Z,11.15
2022-09-07T07:42:48.332Z,11.13
2022-09-07T07:48:06.622Z,10.00
2022-09-07T07:50:34.859Z,10.38
2022-09-07T07:55:51.269Z,9.65
2022-09-07T07:58:19.553Z,9.45
2022-09-07T08:00:56.988Z,9.00
2022-09-07T08:03:26.517Z,9.93
2022-09-07T08:05:54.704Z,11.10
2022-09-07T08:08:24.416Z,9.40
2022-09-07T08:10:52.978Z,9.32
2022-09-07T08:13:21.448Z,9.32
2022-09-07T08:15:50.947Z,9.45
2022-09-07T08:18:19.381Z,9.60
2022-09-07T08:20:47.214Z,8.10
2022-09-07T08:23:15.349Z,8.40
2022-09-07T08:25:50.985Z,9.57
2022-09-07T08:28:18.862Z,8.90
2022-09-07T08:30:46.907Z,9.63
2022-09-07T08:33:17.147Z,8.67
2022-09-07T08:35:55.509Z,8.90
2022-09-07T08:38:23.564Z,9.60
2022-09-07T08:40:51.875Z,9.00
2022-09-07T08:43:33.205Z,10.20
2022-09-07T08:46:10.043Z,9.47
2022-09-07T08:48:40.852Z,8.75
2022-09-07T08:51:14.277Z,9.75
2022-09-07T08:53:46.090Z,10.32
2022-09-07T08:56:19.971Z,9.68
2022-09-07T08:58:50.440Z,8.33
2022-09-07T09:01:35.975Z,8.73
2022-09-07T09:04:15.791Z,10.30
2022-09-07T09:06:54.662Z,9.33
2022-09-07T09:09:30.662Z,9.60
2022-09-07T09:12:12.163Z,9.30
2022-09-07T09:14:54.398Z,9.40
2022-09-07T09:17:31.538Z,10.83
2022-09-07T09:20:16.361Z,9.87
2022-09-07T09:22:44.625Z,9.23
2022-09-07T09:25:20.109Z,9.67
2022-09-07T09:27:48.449Z,9.93
2022-09-07T09:30:18.481Z,8.17
2022-09-07T09:32:48.487Z,8.27
2022-09-07T09:35:33.804Z,9.27
2022-09-07T09:38:03.687Z,9.30
2022-09-07T09:40:33.796Z,8.80
2022-09-07T09:43:04.099Z,9.40
2022-09-07T09:48:32.605Z,8.53
2022-09-07T09:53:58.180Z,9.20
2022-09-07T09:56:38.626Z,9.27
2022-09-07T10:05:34.327Z,9.40
2022-09-07T10:08:16.449Z,8.90
2022-09-07T10:10:59.334Z,9.30
2022-09-07T10:13:31.925Z,8.67
2022-09-07T10:16:02.181Z,8.97
2022-09-07T10:18:34.459Z,9.47
2022-09-07T10:21:24.143Z,9.10
2022-09-07T10:23:59.650Z,8.90
2022-09-07T10:26:31.621Z,8.50
2022-09-07T10:29:14.567Z,8.67
2022-09-07T10:31:53.327Z,8.40
2022-09-07T10:34:29.317Z,9.10
2022-09-07T10:37:04.650Z,8.60
2022-09-07T10:39:37.210Z,7.80
2022-09-07T10:42:23.576Z,8.57
2022-09-07T10:45:04.213Z,9.17
2022-09-07T10:47:46.837Z,8.30
2022-09-07T10:50:29.741Z,9.20
2022-09-07T10:53:36.901Z,8.80
2022-09-07T10:56:08.572Z,7.33
2022-09-07T10:59:02.980Z,9.10
2022-09-07T11:01:45.576Z,7.70
2022-09-07T11:04:31.678Z,8.87
2022-09-07T11:07:13.615Z,8.90
2022-09-07T11:09:57.178Z,10.13
2022-09-07T11:12:31.977Z,9.30
2022-09-07T11:15:15.361Z,8.90
2022-09-07T11:17:52.048Z,9.18
2022-09-07T11:20:29.613Z,9.38
2022-09-07T11:23:07.748Z,9.65
2022-09-07T11:25:42.351Z,8.38
2022-09-07T11:28:18.410Z,9.93
2022-09-07T11:30:50.375Z,8.77
2022-09-07T11:33:23.943Z,10.25
2022-09-07T11:35:56.426Z,9.85
2022-09-07T11:38:26.986Z,9.50
2022-09-07T11:41:07.452Z,10.38
2022-09-07T11:43:41.932Z,9.65
2022-09-07T11:46:16.363Z,9.65
2022-09-07T11:48:46.865Z,8.75
2022-09-07T11:51:18.925Z,9.57
2022-09-07T11:53:50.570Z,10.20
2022-09-07T11:56:22.958Z,9.65
2022-09-07T11:59:24.830Z,9.32
2022-09-07T12:02:11.399Z,9.50
2022-09-07T12:05:05.609Z,9.82
2022-09-07T12:07:45.680Z,9.27
2022-09-07T12:10:34.267Z,10.73
2022-09-07T12:13:17.203Z,10.75
2022-09-07T12:15:54.119Z,9.65
2022-09-07T12:18:43.204Z,9.05
2022-09-07T12:21:33.169Z,9.20
2022-09-07T12:24:01.132Z,10.00
2022-09-07T12:26:51.397Z,9.05
2022-09-07T12:29:25.672Z,9.82
2022-09-07T12:31:58.335Z,9.40
2022-09-07T12:34:51.721Z,10.43
2022-09-07T12:37:46.652Z,9.57
2022-09-07T12:40:47.876Z,9.67
2022-09-07T12:43:58.435Z,9.90
2022-09-07T12:46:47.139Z,8.60
2022-09-07T12:49:35.481Z,8.52
2022-09-07T12:52:16.012Z,9.23
2022-09-07T12:55:09.952Z,9.23
2022-09-07T12:57:47.892Z,10.68
2022-09-07T13:00:23.319Z,9.30
2022-09-07T13:03:49.553Z,9.65
2022-09-07T13:06:09.767Z,8.60
2022-09-07T13:09:04.562Z,10.35
2022-09-07T13:11:35.750Z,9.40
2022-09-07T13:14:08.805Z,9.97
2022-09-07T13:20:08.624Z,11.63
2022-09-07T13:23:19.137Z,10.83
2022-09-07T13:25:55.957Z,9.77
2022-09-07T13:28:56.338Z,9.93
2022-09-07T13:31:40.650Z,9.90
2022-09-07T13:34:31.081Z,9.43
2022-09-07T13:36:59.798Z,11.17
2022-09-07T13:39:32.047Z,10.20
2022-09-07T13:42:01.337Z,11.17
2022-09-07T13:44:32.968Z,10.03
2022-09-07T13:47:18.746Z,10.95
2022-09-07T13:50:05.826Z,11.20
2022-09-07T13:52:49.311Z,9.23
2022-09-07T13:55:27.330Z,8.77
2022-09-07T13:58:07.554Z,8.63
2022-09-07T14:00:35.803Z,7.00
2022-09-07T14:03:07.154Z,7.47
2022-09-07T14:09:23.114Z,8.00
2022-09-07T14:11:54.319Z,8.52
2022-09-07T14:14:23.785Z,8.25
2022-09-07T14:16:57.894Z,7.25
2022-09-07T14:19:28.029Z,7.97
2022-09-07T14:22:01.514Z,7.70
2022-09-07T14:24:33.726Z,6.30
2022-09-07T14:27:03.669Z,7.32
2022-09-07T14:29:33.193Z,7.68
2022-09-07T14:32:03.781Z,7.45
2022-09-07T14:34:35.220Z,8.27
2022-09-07T14:37:07.372Z,8.63
2022-09-07T14:39:39.621Z,8.30
2022-09-07T14:42:12.486Z,7.45
2022-09-07T14:44:43.108Z,8.00
2022-09-07T14:47:24.445Z,7.50
2022-09-07T14:49:56.665Z,7.57
2022-09-07T14:52:32.562Z,9.60
2022-09-07T14:55:03.347Z,9.00
2022-09-07T14:57:33.680Z,8.38
2022-09-07T15:00:20.624Z,9.13
2022-09-07T15:02:48.891Z,8.80
2022-09-07T15:05:25.609Z,9.38
2022-09-07T15:07:56.378Z,9.98
2022-09-07T15:10:35.350Z,8.98
2022-09-07T15:13:06.831Z,9.75
2022-09-07T15:15:37.496Z,9.95
2022-09-07T15:18:09.015Z,10.20
2022-09-07T15:20:43.018Z,9.65
2022-09-07T15:23:13.243Z,9.45
2022-09-07T15:25:45.444Z,10.13
2022-09-07T15:34:03.332Z,10.00
2022-09-07T15:36:32.259Z,11.65
2022-09-07T15:39:00.874Z,11.00
2022-09-07T15:41:29.563Z,11.55
2022-09-07T15:43:59.178Z,11.02
2022-09-07T15:46:27.408Z,10.00
2022-09-07T15:48:56.864Z,11.63
2022-09-07T15:54:15.055Z,10.50
2022-09-07T15:57:48.095Z,13.63
2022-09-07T15:59:33.473Z,11.50
2022-09-07T16:02:02.034Z,11.75
2022-09-07T16:04:30.637Z,11.45
2022-09-07T16:07:01.649Z,10.80
2022-09-07T16:09:29.698Z,12.25
2022-09-07T16:13:00.063Z,12.85
2022-09-07T16:14:46.760Z,11.18
2022-09-07T16:17:35.765Z,12.25
2022-09-07T16:20:03.320Z,11.20
2022-09-07T16:25:20.027Z,11.85
2022-09-07T16:27:48.105Z,11.88
2022-09-07T16:30:17.345Z,11.73
2022-09-07T16:32:45.470Z,11.32
2022-09-07T16:35:13.497Z,12.60
2022-09-07T16:38:43.529Z,12.32
2022-09-07T16:40:29.176Z,11.93
2022-09-07T16:42:57.008Z,12.35
2022-09-07T16:48:14.383Z,11.98
2022-09-07T16:50:55.115Z,14.60
2022-09-07T16:53:27.063Z,12.82
2022-09-07T16:56:01.312Z,11.85
2022-09-07T16:58:38.292Z,11.48
2022-09-07T17:01:09.653Z,11.63
2022-09-07T17:03:38.322Z,11.90
2022-09-07T17:06:08.171Z,12.32
2022-09-07T17:08:37.630Z,11.45
2022-09-07T17:11:07.409Z,11.63
2022-09-07T17:13:37.066Z,13.02
2022-09-07T17:16:07.795Z,12.63
2022-09-07T17:21:24.491Z,13.35
2022-09-07T17:23:55.598Z,12.98
2022-09-07T17:26:28.114Z,13.25
2022-09-07T17:29:00.414Z,11.85
2022-09-07T17:34:20.523Z,14.05
2022-09-07T17:36:48.784Z,13.60
2022-09-07T17:39:18.443Z,14.50
2022-09-07T17:41:47.689Z,15.85
2022-09-07T17:44:16.149Z,14.80
2022-09-07T17:46:45.275Z,14.18
2022-09-07T17:49:14.501Z,14.73
2022-09-07T17:51:42.414Z,13.82
2022-09-07T17:54:14.397Z,14.00
2022-09-07T17:56:42.933Z,14.90
2022-09-07T18:02:00.973Z,22.60
2022-09-07T18:04:29.034Z,19.33
2022-09-07T18:06:56.990Z,14.82
2022-09-07T18:09:24.829Z,15.38
2022-09-07T18:11:52.687Z,15.65
2022-09-07T18:14:20.747Z,16.98
2022-09-07T18:16:50.478Z,18.67
2022-09-07T18:19:20.337Z,23.73
2022-09-07T18:21:49.193Z,35.88
2022-09-07T18:24:19.038Z,30.38
2022-09-07T18:26:52.031Z,21.90
2022-09-07T18:29:37.427Z,17.88
2022-09-07T18:32:09.889Z,15.63
2022-09-07T18:34:41.250Z,14.07
2022-09-07T18:37:09.423Z,14.05
2022-09-07T18:39:37.434Z,14.32
2022-09-07T18:42:05.765Z,15.10
2022-09-07T18:47:28.016Z,15.18
2022-09-07T18:49:58.047Z,16.70
2022-09-07T18:55:14.611Z,16.15
2022-09-07T18:57:42.479Z,16.25
2022-09-07T19:00:17.659Z,16.33
2022-09-07T19:02:49.792Z,15.60
2022-09-07T19:08:08.453Z,15.80
2022-09-07T19:10:37.654Z,15.77
2022-09-07T19:13:05.537Z,15.63
2022-09-07T19:15:37.281Z,16.27
2022-09-07T19:18:07.347Z,15.43
2022-09-07T19:20:37.332Z,15.68
2022-09-07T19:23:05.362Z,15.68
2022-09-07T19:25:33.153Z,15.02
2022-09-07T19:28:01.063Z,14.77
2022-09-07T19:30:29.002Z,14.95
2022-09-07T19:33:00.726Z,15.38
2022-09-07T19:35:37.012Z,15.13
2022-09-07T19:38:05.237Z,16.25
2022-09-07T19:40:33.008Z,14.43
2022-09-07T19:43:00.759Z,14.60
2022-09-07T19:45:29.288Z,12.95
2022-09-07T19:47:57.108Z,14.45
2022-09-07T19:50:24.922Z,15.02
2022-09-07T19:52:54.002Z,16.15
2022-09-07T19:55:21.793Z,16.00
2022-09-07T19:57:51.280Z,15.77
2022-09-07T20:00:19.293Z,15.40
2022-09-07T20:02:48.903Z,14.65
2022-09-07T20:05:17.059Z,15.00
2022-09-07T20:07:45.012Z,14.20
2022-09-07T20:10:14.122Z,14.43
2022-09-07T20:12:41.964Z,13.48
2022-09-07T20:15:10.845Z,13.20
2022-09-07T20:17:38.615Z,15.32
2022-09-07T20:20:07.194Z,14.30
2022-09-07T20:22:34.946Z,13.63
2022-09-07T20:25:02.779Z,14.98
2022-09-07T20:27:32.159Z,14.65
2022-09-07T20:29:59.986Z,13.90
2022-09-07T20:32:28.833Z,13.55
2022-09-07T20:34:57.251Z,15.65
2022-09-07T20:37:27.496Z,14.40
2022-09-07T20:39:55.406Z,14.07
2022-09-07T20:42:23.170Z,14.02
2022-09-07T20:44:53.485Z,13.25
2022-09-07T20:47:21.240Z,14.85
2022-09-07T20:49:49.356Z,14.43
2022-09-07T20:52:17.123Z,12.73
2022-09-07T20:54:44.921Z,14.20
2022-09-07T20:57:12.729Z,14.43
2022-09-07T20:59:40.535Z,13.45
2022-09-07T21:02:11.236Z,13.43
2022-09-07T21:04:39.059Z,13.45
2022-09-07T21:07:06.828Z,14.15
2022-09-07T21:09:34.626Z,13.32
2022-09-07T21:12:02.553Z,12.95
2022-09-07T21:14:30.353Z,12.93
2022-09-07T21:16:58.124Z,14.50
2022-09-07T21:19:27.279Z,13.70
2022-09-07T21:21:55.067Z,14.25
2022-09-07T21:24:24.172Z,14.13
2022-09-07T21:26:52.682Z,13.23
2022-09-07T21:29:22.912Z,12.77
2022-09-07T21:31:51.479Z,12.85
2022-09-07T21:34:19.498Z,12.73
2022-09-07T21:36:48.832Z,13.55
2022-09-07T21:39:17.252Z,15.75
2022-09-07T21:41:45.749Z,13.13
2022-09-07T21:44:15.433Z,12.65
2022-09-07T21:46:44.468Z,12.40
2022-09-07T21:49:12.401Z,12.95
2022-09-07T21:51:40.435Z,12.60
2022-09-07T21:54:09.616Z,13.77
2022-09-07T21:56:37.571Z,14.35
2022-09-07T21:59:06.214Z,13.48
2022-09-07T22:01:34.071Z,12.90
2022-09-07T22:04:20.529Z,13.32
2022-09-07T22:06:48.478Z,13.73
2022-09-07T22:09:17.745Z,14.13
2022-09-07T22:11:46.276Z,12.38
2022-09-07T22:14:15.708Z,13.50
2022-09-07T22:16:43.495Z,13.57
2022-09-07T22:19:11.537Z,13.73
2022-09-07T22:21:39.368Z,12.60
2022-09-07T22:24:07.989Z,13.02
2022-09-07T22:26:38.532Z,13.20
2022-09-07T22:29:07.745Z,13.25
2022-09-07T22:31:37.309Z,14.55
2022-09-07T22:34:08.518Z,12.82
2022-09-07T22:36:38.375Z,12.73
2022-09-07T22:39:08.865Z,13.13
2022-09-07T22:41:39.140Z,13.68
2022-09-07T22:44:09.299Z,13.15
2022-09-07T22:46:38.995Z,13.80
2022-09-07T22:49:07.639Z,13.25
2022-09-07T22:51:35.917Z,13.35
2022-09-07T22:54:03.755Z,12.90
2022-09-07T22:56:34.125Z,13.20
2022-09-07T22:59:07.424Z,14.55
2022-09-07T23:01:36.190Z,14.27
2022-09-07T23:04:04.622Z,11.43
2022-09-07T23:06:34.530Z,12.00
2022-09-07T23:09:06.800Z,11.90
2022-09-07T23:11:35.186Z,12.77
2022-09-07T23:14:06.565Z,12.35
2022-09-07T23:16:34.594Z,13.10
2022-09-07T23:19:02.547Z,11.57
2022-09-07T23:21:30.866Z,12.00
2022-09-07T23:24:00.327Z,12.73
2022-09-07T23:26:30.985Z,13.23
2022-09-07T23:29:00.758Z,11.40
2022-09-07T23:31:31.836Z,12.07
2022-09-07T23:34:01.110Z,12.23
2022-09-07T23:36:30.410Z,10.95
2022-09-07T23:38:59.799Z,11.07
2022-09-07T23:41:28.493Z,10.80
2022-09-07T23:43:56.985Z,12.18
2022-09-07T23:46:25.148Z,10.70
2022-09-07T23:48:54.333Z,11.30
2022-09-07T23:51:24.423Z,11.40
2022-09-07T23:53:53.544Z,12.27
2022-09-07T23:56:24.341Z,12.27
2022-09-07T23:58:52.476Z,11.25
